Main page
METAR-TAF:

METAR-TAF

Airports :

Mary International Airport

Mary, Turkmenistan

latitude: 37-36-24N, longitude: 061-54-05E, elevation: 222 m

Current weather observation

The report was made 32 minutes ago, at 07:00 UTC
Wind 4 kt from the East
Temperature 34°C
Humidity 16%
Pressure 1008 hPa
Visibility 10 km or more
no clouds below 1500 m and no cumulonimbus

METAR: UTAM 180700Z 08004KT CAVOK 34/05 Q1008 R88/CLRD70 NOSIG

Time: 12:32 (07:32 UTC)

Forecast

The report was made 3 hours and 2 minutes ago, at 04:30 UTC
Forecast valid from 18 at 06 UTC to 19 at 06 UTC
Wind 14 kt from the North/Northeast
Visibility 10 km or more
no clouds below 1500 m and no cumulonimbus
Temporary
from 18 at 06 UTC to 18 at 12 UTC
Wind 4 kt from variable directions
Visibility: 3000 m
haze
Temporary
from 19 at 02 UTC to 19 at 06 UTC
Wind 16 kt from the North/Northwest
Scattered clouds at a height of 5000 ft

TAF: UTAM 180430Z 1806/1906 02014KT CAVOK TEMPO 1806/1812 VRB04KT 3000 HZ TEMPO 1902/1906 33016KT SCT050

Weather observations and forecasts of more than 4000 airports (METAR and TAF reports).

The available stations are represented by yellow and red dots on the map.

Hover mouse over dot to see the name of the station.

Then click to see weather observations and forecasts.

To change the map : click on the green buttons with a black cross to zoom in, on the green button with a dash to zoom out, or on the green arrows for adjacent maps.


METAR-TAF: